createdAt,value
2017-12-22T00:00:02.556Z,49.63
2017-12-22T00:02:29.992Z,48.67
2017-12-22T00:04:57.676Z,66.30
2017-12-22T00:07:25.121Z,66.63
2017-12-22T00:09:52.544Z,58.17
2017-12-22T00:12:21.072Z,53.00
2017-12-22T00:14:48.507Z,61.73
2017-12-22T00:17:15.932Z,65.30
2017-12-22T00:19:44.155Z,56.77
2017-12-22T00:22:14.361Z,54.37
2017-12-22T00:27:12.881Z,67.30
2017-12-22T00:29:40.308Z,65.00
2017-12-22T00:32:07.745Z,57.80
2017-12-22T00:34:35.957Z,58.20
2017-12-22T00:37:03.392Z,66.47
2017-12-22T00:39:30.825Z,50.57
2017-12-22T00:41:58.520Z,60.60
2017-12-22T00:44:25.948Z,72.70
2017-12-22T00:46:54.156Z,50.20
2017-12-22T00:49:21.604Z,65.80
2017-12-22T00:51:49.068Z,56.27
2017-12-22T00:54:17.244Z,60.43
2017-12-22T00:56:44.688Z,64.97
2017-12-22T00:59:12.120Z,69.30
2017-12-22T01:01:39.546Z,66.37
2017-12-22T01:04:07.236Z,59.17
2017-12-22T01:06:34.673Z,54.40
2017-12-22T01:09:02.876Z,59.17
2017-12-22T01:11:31.089Z,65.57
2017-12-22T01:13:58.515Z,69.83
2017-12-22T01:16:32.800Z,51.70
2017-12-22T01:19:06.009Z,61.93
2017-12-22T01:21:33.585Z,47.73
2017-12-22T01:24:00.960Z,60.90
2017-12-22T01:26:28.394Z,59.77
2017-12-22T01:28:56.700Z,35.57
2017-12-22T01:31:24.137Z,49.27
2017-12-22T01:33:52.328Z,42.60
2017-12-22T01:36:19.773Z,52.87
2017-12-22T01:38:47.970Z,51.93
2017-12-22T01:41:15.403Z,44.50
2017-12-22T01:43:43.916Z,40.40
2017-12-22T01:46:11.348Z,37.30
2017-12-22T01:48:38.783Z,34.67
2017-12-22T01:51:06.988Z,33.90
2017-12-22T01:53:34.416Z,36.13
2017-12-22T01:56:02.613Z,37.90
2017-12-22T01:58:30.060Z,36.97
2017-12-22T02:00:57.499Z,36.20
2017-12-22T02:03:25.692Z,38.63
2017-12-22T02:05:53.132Z,35.50
2017-12-22T02:08:21.336Z,35.17
2017-12-22T02:10:48.760Z,39.40
2017-12-22T02:13:17.273Z,35.90
2017-12-22T02:15:44.704Z,36.43
2017-12-22T02:18:12.900Z,36.30
2017-12-22T02:20:40.347Z,32.80
2017-12-22T02:23:08.545Z,37.63
2017-12-22T02:25:35.982Z,31.87
2017-12-22T02:28:03.677Z,30.93
2017-12-22T02:30:31.109Z,28.43
2017-12-22T02:32:58.540Z,28.07
2017-12-22T02:35:26.741Z,30.20
2017-12-22T02:37:54.173Z,30.30
2017-12-22T02:40:22.372Z,27.93
2017-12-22T02:42:49.812Z,23.87
2017-12-22T02:45:18.012Z,26.03
2017-12-22T02:47:45.453Z,24.70
2017-12-22T02:50:13.660Z,26.17
2017-12-22T02:52:41.095Z,26.90
2017-12-22T02:55:08.535Z,26.87
2017-12-22T02:57:36.738Z,27.67
2017-12-22T03:00:04.169Z,29.00
2017-12-22T03:02:32.373Z,25.47
2017-12-22T03:04:59.809Z,27.30
2017-12-22T03:07:27.245Z,22.53
2017-12-22T03:09:55.441Z,29.17
2017-12-22T03:12:22.892Z,22.33
2017-12-22T03:14:50.324Z,24.00
2017-12-22T03:17:17.756Z,22.27
2017-12-22T03:19:45.960Z,21.53
2017-12-22T03:22:14.178Z,22.97
2017-12-22T03:24:41.586Z,20.80
2017-12-22T03:27:09.029Z,18.97
2017-12-22T03:29:36.463Z,18.53
2017-12-22T03:32:03.906Z,18.83
2017-12-22T03:34:31.360Z,23.60
2017-12-22T03:36:58.785Z,17.80
2017-12-22T03:39:26.981Z,19.33
2017-12-22T03:41:54.768Z,22.67
2017-12-22T03:44:22.200Z,18.07
2017-12-22T03:46:49.624Z,15.63
2017-12-22T03:49:17.830Z,19.33
2017-12-22T03:51:45.261Z,17.80
2017-12-22T03:54:13.464Z,18.67
2017-12-22T03:56:41.249Z,15.37
2017-12-22T03:59:08.676Z,16.93
2017-12-22T04:01:36.101Z,18.87
2017-12-22T04:04:03.545Z,15.30
2017-12-22T04:06:30.972Z,16.47
2017-12-22T04:08:58.406Z,16.20
2017-12-22T04:11:25.844Z,17.27
2017-12-22T04:13:54.064Z,16.90
2017-12-22T04:16:21.520Z,14.60
2017-12-22T04:18:49.284Z,12.67
2017-12-22T04:21:16.717Z,14.73
2017-12-22T04:23:44.137Z,10.93
2017-12-22T04:26:11.577Z,12.30
2017-12-22T04:28:39.004Z,13.10
2017-12-22T04:31:06.439Z,14.07
2017-12-22T04:33:34.880Z,10.90
2017-12-22T04:36:02.319Z,11.47
2017-12-22T04:38:29.768Z,12.37
2017-12-22T04:40:57.212Z,11.07
2017-12-22T04:43:24.670Z,11.53
2017-12-22T04:45:52.072Z,10.17
2017-12-22T04:48:19.508Z,9.53
2017-12-22T04:50:46.933Z,10.67
2017-12-22T04:53:14.357Z,9.00
2017-12-22T04:55:42.800Z,10.23
2017-12-22T04:58:10.234Z,11.53
2017-12-22T05:00:37.652Z,10.63
2017-12-22T05:03:05.872Z,9.87
2017-12-22T05:05:33.289Z,12.20
2017-12-22T05:08:01.485Z,10.93
2017-12-22T05:10:29.271Z,11.20
2017-12-22T05:12:56.696Z,10.47
2017-12-22T05:15:24.150Z,11.03
2017-12-22T05:17:52.345Z,9.13
2017-12-22T05:20:19.780Z,9.53
2017-12-22T05:22:47.204Z,9.47
2017-12-22T05:25:14.880Z,12.30
2017-12-22T05:27:43.097Z,13.03
2017-12-22T05:30:10.508Z,12.90
2017-12-22T05:32:38.713Z,9.80
2017-12-22T05:35:06.131Z,9.47
2017-12-22T05:37:33.557Z,11.83
2017-12-22T05:40:02.033Z,13.33
2017-12-22T05:42:29.456Z,9.30
2017-12-22T05:44:56.880Z,10.87
2017-12-22T05:47:24.617Z,11.87
2017-12-22T05:49:52.809Z,10.37
2017-12-22T05:52:20.240Z,11.40
2017-12-22T05:54:47.687Z,10.70
2017-12-22T05:57:15.111Z,12.37
2017-12-22T05:59:43.300Z,10.33
2017-12-22T06:02:11.056Z,11.17
2017-12-22T06:04:38.480Z,11.33
2017-12-22T06:07:05.908Z,12.43
2017-12-22T06:09:33.361Z,12.67
2017-12-22T06:12:00.810Z,9.70
2017-12-22T06:14:28.227Z,9.57
2017-12-22T06:16:56.752Z,9.80
2017-12-22T06:19:24.175Z,9.13
2017-12-22T06:21:52.365Z,12.17
2017-12-22T06:24:20.052Z,10.53
2017-12-22T06:26:47.480Z,10.60
2017-12-22T06:29:14.904Z,10.37
2017-12-22T06:31:42.360Z,9.23
2017-12-22T06:34:09.777Z,9.73
2017-12-22T06:36:37.208Z,11.40
2017-12-22T06:39:04.888Z,9.93
2017-12-22T06:41:32.322Z,8.67
2017-12-22T06:43:59.791Z,8.83
2017-12-22T06:46:27.265Z,11.40
2017-12-22T06:48:54.684Z,9.83
2017-12-22T06:51:22.876Z,8.67
2017-12-22T06:53:50.329Z,10.37
2017-12-22T06:56:17.751Z,10.80
2017-12-22T06:58:45.272Z,9.60
2017-12-22T07:01:13.031Z,10.93
2017-12-22T07:03:40.457Z,12.37
2017-12-22T07:06:08.668Z,10.33
2017-12-22T07:08:36.113Z,9.93
2017-12-22T07:11:03.565Z,11.13
2017-12-22T08:22:51.162Z,7.37
2017-12-22T08:25:18.601Z,9.03
2017-12-22T08:27:46.028Z,10.50
2017-12-22T08:30:14.268Z,8.27
2017-12-22T08:32:41.718Z,9.47
2017-12-22T09:38:42.213Z,13.57
2017-12-22T09:41:09.734Z,18.33
2017-12-22T09:43:37.189Z,15.07
2017-12-22T09:46:04.641Z,15.50
2017-12-22T09:48:32.092Z,17.33
2017-12-22T09:50:59.521Z,17.90
2017-12-22T09:53:28.175Z,18.80
2017-12-22T09:55:56.421Z,17.47
2017-12-22T09:58:23.876Z,17.27
2017-12-22T10:00:51.838Z,20.67
2017-12-22T10:03:19.403Z,19.93
2017-12-22T10:05:46.859Z,21.40
2017-12-22T10:08:14.607Z,23.20
2017-12-22T10:10:42.098Z,19.93
2017-12-22T10:13:09.568Z,23.40
2017-12-22T10:15:37.101Z,22.93
2017-12-22T10:18:04.528Z,23.20
2017-12-22T10:20:32.015Z,26.30
2017-12-22T10:22:59.753Z,26.07
2017-12-22T10:25:27.193Z,27.87
2017-12-22T10:27:55.394Z,29.87
2017-12-22T10:30:22.840Z,29.90
2017-12-22T10:32:50.272Z,30.33
2017-12-22T10:35:18.692Z,34.73
2017-12-22T10:37:46.161Z,36.73
2017-12-22T10:40:13.598Z,40.23
2017-12-22T10:42:41.068Z,38.93
2017-12-22T10:45:08.841Z,41.73
2017-12-22T10:47:36.293Z,48.60
2017-12-22T10:50:03.725Z,47.57
2017-12-22T10:52:31.182Z,38.33
2017-12-22T10:54:58.669Z,39.40
2017-12-22T10:57:26.120Z,36.27
2017-12-22T10:59:53.889Z,41.70
2017-12-22T11:02:21.342Z,37.03
2017-12-22T11:04:48.756Z,36.60
2017-12-22T11:07:25.427Z,34.47
2017-12-22T11:09:53.360Z,38.57
2017-12-22T11:12:20.809Z,33.53
2017-12-22T11:14:48.256Z,36.70
2017-12-22T11:17:22.092Z,36.63
2017-12-22T11:19:50.652Z,34.67
2017-12-22T11:22:18.090Z,38.60
2017-12-22T11:24:45.528Z,34.90
2017-12-22T11:27:16.689Z,33.87
2017-12-22T11:29:44.873Z,34.90
2017-12-22T11:32:12.381Z,33.47
2017-12-22T11:34:40.589Z,34.80
2017-12-22T11:37:08.017Z,34.57
2017-12-22T11:39:36.311Z,35.50
2017-12-22T11:42:03.805Z,34.67
2017-12-22T11:44:31.267Z,30.87
2017-12-22T11:46:58.808Z,30.77
2017-12-22T11:49:26.252Z,31.43
2017-12-22T11:51:53.688Z,29.50
2017-12-22T11:54:21.125Z,32.73
2017-12-22T11:56:49.356Z,33.60
2017-12-22T11:59:16.792Z,30.47
2017-12-22T12:01:44.220Z,28.47
2017-12-22T12:04:12.818Z,29.77
2017-12-22T12:06:41.013Z,28.63
2017-12-22T12:09:08.484Z,27.43
2017-12-22T12:11:36.029Z,26.67
2017-12-22T12:14:03.476Z,23.17
2017-12-22T12:16:30.904Z,21.33
2017-12-22T12:18:59.121Z,19.20
2017-12-22T12:21:26.570Z,19.53
2017-12-22T12:23:54.037Z,18.50
2017-12-22T12:26:21.489Z,17.83
2017-12-22T12:28:48.957Z,17.77
2017-12-22T12:31:16.408Z,19.57
2017-12-22T12:33:44.185Z,19.67
2017-12-22T12:36:11.615Z,17.87
2017-12-22T12:38:39.045Z,18.90
2017-12-22T12:41:07.273Z,18.97
2017-12-22T12:43:34.714Z,19.77
2017-12-22T12:46:02.150Z,19.20
2017-12-22T12:48:29.609Z,20.20
2017-12-22T12:50:57.106Z,19.57
2017-12-22T12:53:24.542Z,18.83
2017-12-22T12:55:52.056Z,21.00
2017-12-22T12:58:20.260Z,19.47
2017-12-22T13:00:47.701Z,21.17
2017-12-22T13:03:15.157Z,19.30
2017-12-22T13:05:42.584Z,18.30
2017-12-22T13:08:10.021Z,20.13
2017-12-22T13:10:38.483Z,20.37
2017-12-22T13:13:05.912Z,19.40
2017-12-22T13:15:33.349Z,19.50
2017-12-22T13:18:00.815Z,19.93
2017-12-22T13:20:28.229Z,19.93
2017-12-22T13:22:56.432Z,20.17
2017-12-22T13:25:24.210Z,18.60
2017-12-22T13:27:51.641Z,21.40
2017-12-22T13:30:19.080Z,22.37
2017-12-22T13:32:47.613Z,21.57
2017-12-22T13:35:15.050Z,19.83
2017-12-22T13:37:42.497Z,19.83
2017-12-22T13:40:10.288Z,21.13
2017-12-22T13:42:37.748Z,21.00
2017-12-22T13:45:05.197Z,21.73
2017-12-22T13:47:32.639Z,20.80
2017-12-22T13:50:00.104Z,20.70
2017-12-22T13:52:27.531Z,23.17
2017-12-22T13:54:56.048Z,21.47
2017-12-22T13:57:23.489Z,22.77
2017-12-22T13:59:50.929Z,21.00
2017-12-22T14:02:18.383Z,22.63
2017-12-22T14:04:46.586Z,22.07
2017-12-22T14:07:14.025Z,22.10
2017-12-22T14:09:41.481Z,22.03
2017-12-22T14:12:08.914Z,21.23
2017-12-22T14:14:36.345Z,20.30
2017-12-22T14:17:03.793Z,20.17
2017-12-22T14:19:31.230Z,20.43
2017-12-22T14:21:58.668Z,21.57
2017-12-22T14:24:26.660Z,23.13
2017-12-22T14:26:54.078Z,25.13
2017-12-22T14:29:22.293Z,19.67
2017-12-22T14:31:49.744Z,20.27
2017-12-22T14:34:17.200Z,20.77
2017-12-22T14:36:44.641Z,21.57
2017-12-22T14:39:12.141Z,21.40
2017-12-22T14:41:39.531Z,21.90
2017-12-22T14:44:07.761Z,21.63
2017-12-22T14:46:35.482Z,20.90
2017-12-22T14:49:03.688Z,20.13
2017-12-22T14:51:31.181Z,23.17
2017-12-22T14:53:58.633Z,23.47
2017-12-22T14:56:26.073Z,23.13
2017-12-22T14:58:53.509Z,24.17
2017-12-22T15:01:21.289Z,23.50
2017-12-22T15:03:48.742Z,24.17
2017-12-22T15:06:16.173Z,23.80
2017-12-22T15:08:43.973Z,26.87
2017-12-22T15:11:11.418Z,28.27
2017-12-22T15:13:38.857Z,28.23
2017-12-22T15:16:06.317Z,28.20
2017-12-22T15:18:33.769Z,27.50
2017-12-22T15:21:01.203Z,27.83
2017-12-22T15:23:29.420Z,27.80
2017-12-22T15:25:56.857Z,27.37
2017-12-22T15:28:24.291Z,29.30
2017-12-22T15:30:52.857Z,27.27
2017-12-22T15:33:20.296Z,30.48
2017-12-22T15:35:47.725Z,26.80
2017-12-22T15:38:15.197Z,25.50
2017-12-22T15:40:42.629Z,23.90
2017-12-22T15:43:10.071Z,25.53
2017-12-22T15:45:37.768Z,24.00
2017-12-22T15:48:05.201Z,20.47
2017-12-22T15:50:32.636Z,20.03
2017-12-22T15:53:00.850Z,18.83
2017-12-22T15:55:28.281Z,19.57
2017-12-22T15:57:55.728Z,19.47
2017-12-22T16:00:23.937Z,18.30
2017-12-22T16:02:51.373Z,20.37
2017-12-22T16:05:18.824Z,21.37
2017-12-22T16:07:47.035Z,20.13
2017-12-22T16:10:14.469Z,20.57
2017-12-22T16:12:41.922Z,20.57
2017-12-22T16:15:09.727Z,20.13
2017-12-22T16:17:37.154Z,24.37
2017-12-22T16:20:04.589Z,21.83
2017-12-22T16:22:32.816Z,22.97
2017-12-22T16:25:00.246Z,23.70
2017-12-22T16:27:27.721Z,26.47
2017-12-22T16:29:55.485Z,24.90
2017-12-22T16:32:22.937Z,26.50
2017-12-22T16:34:50.402Z,28.57
2017-12-22T16:37:18.133Z,36.27
2017-12-22T16:39:45.623Z,47.57
2017-12-22T16:42:13.081Z,40.47
2017-12-22T16:44:40.844Z,36.60
2017-12-22T16:47:08.316Z,36.80
2017-12-22T16:49:35.757Z,40.20
2017-12-22T16:52:03.213Z,39.30
2017-12-22T16:54:30.629Z,38.57
2017-12-22T16:56:58.069Z,41.43
2017-12-22T16:59:25.790Z,42.70
2017-12-22T17:01:53.272Z,44.10
2017-12-22T17:04:20.689Z,51.87
2017-12-22T17:06:48.141Z,68.17
2017-12-22T17:09:15.565Z,51.17
2017-12-22T17:11:43.765Z,43.20
2017-12-22T17:14:11.234Z,47.83
2017-12-22T17:16:38.675Z,38.63
2017-12-22T17:19:06.109Z,36.37
2017-12-22T17:21:34.313Z,34.00
2017-12-22T17:24:01.766Z,29.73
2017-12-22T17:26:29.191Z,29.23
2017-12-22T17:28:56.637Z,29.53
2017-12-22T17:31:24.069Z,35.77
2017-12-22T17:33:51.504Z,35.57
2017-12-22T17:36:19.289Z,38.90
2017-12-22T17:38:46.737Z,58.63
2017-12-22T17:41:14.178Z,45.03
2017-12-22T17:43:41.617Z,47.23
2017-12-22T17:46:09.929Z,42.87
2017-12-22T17:48:37.346Z,41.50
2017-12-22T17:51:05.883Z,44.33
2017-12-22T17:53:34.084Z,37.53
2017-12-22T17:56:01.517Z,39.17
2017-12-22T17:58:28.964Z,38.23
2017-12-22T18:00:56.444Z,46.67
2017-12-22T18:03:23.887Z,35.73
2017-12-22T18:05:51.333Z,52.00
2017-12-22T18:08:18.784Z,53.10
2017-12-22T18:10:50.315Z,67.28
2017-12-22T18:13:18.517Z,52.10
2017-12-22T18:15:45.944Z,44.90
2017-12-22T18:18:13.392Z,64.27
2017-12-22T18:20:41.600Z,46.70
2017-12-22T18:23:09.046Z,51.33
2017-12-22T18:25:36.485Z,51.43
2017-12-22T18:28:05.890Z,56.57
2017-12-22T18:30:33.381Z,47.27
2017-12-22T18:33:00.902Z,40.53
2017-12-22T18:35:28.305Z,65.17
2017-12-22T18:37:55.748Z,70.80
2017-12-22T18:40:23.230Z,77.80
2017-12-22T18:42:50.982Z,70.43
2017-12-22T18:45:18.442Z,60.80
2017-12-22T18:47:45.889Z,52.80
2017-12-22T18:50:13.342Z,53.17
2017-12-22T18:52:40.800Z,55.53
2017-12-22T18:55:08.365Z,45.63
2017-12-22T18:57:36.143Z,45.77
2017-12-22T19:00:03.584Z,54.33
2017-12-22T19:02:31.017Z,40.07
2017-12-22T19:04:58.827Z,56.30
2017-12-22T19:07:26.257Z,73.63
2017-12-22T19:09:53.691Z,44.47
2017-12-22T19:12:21.134Z,40.53
2017-12-22T19:14:49.349Z,41.23
2017-12-22T19:17:16.785Z,46.80
2017-12-22T19:19:44.671Z,51.43
2017-12-22T19:22:12.126Z,55.10
2017-12-22T19:24:39.589Z,53.77
2017-12-22T19:27:07.030Z,61.73
2017-12-22T19:29:34.482Z,49.13
2017-12-22T19:32:02.682Z,50.63
2017-12-22T19:34:30.456Z,46.03
2017-12-22T19:36:57.906Z,45.80
2017-12-22T19:39:25.373Z,61.10
2017-12-22T19:41:52.830Z,60.43
2017-12-22T19:44:20.409Z,42.40
2017-12-22T19:46:47.869Z,65.83
2017-12-22T19:49:15.309Z,47.80
2017-12-22T19:51:42.840Z,75.50
2017-12-22T19:54:11.094Z,35.30
2017-12-22T19:56:38.901Z,45.43
2017-12-22T19:59:06.337Z,32.77
2017-12-22T20:01:33.774Z,48.33
2017-12-22T20:04:01.609Z,55.50
2017-12-22T20:06:29.054Z,52.90
2017-12-22T20:08:56.497Z,51.70
2017-12-22T20:11:24.189Z,58.90
2017-12-22T20:13:51.628Z,43.67
2017-12-22T20:16:19.069Z,57.90
2017-12-22T20:18:46.534Z,49.57
2017-12-22T20:21:13.974Z,55.20
2017-12-22T20:23:41.420Z,47.27
2017-12-22T20:26:09.113Z,50.03
2017-12-22T20:28:36.553Z,52.17
2017-12-22T20:31:04.042Z,45.53
2017-12-22T20:33:32.287Z,46.83
2017-12-22T20:35:59.765Z,44.93
2017-12-22T20:38:27.209Z,39.13
2017-12-22T20:40:54.658Z,40.87
2017-12-22T20:43:22.147Z,48.97
2017-12-22T20:45:49.717Z,36.33
2017-12-22T20:48:17.153Z,44.27
2017-12-22T20:50:44.601Z,65.77
2017-12-22T20:53:12.804Z,45.30
2017-12-22T20:55:40.260Z,57.67
2017-12-22T20:58:07.709Z,55.97
2017-12-22T21:00:35.153Z,54.57
2017-12-22T21:03:02.601Z,56.67
2017-12-22T21:05:30.037Z,42.47
2017-12-22T21:07:57.477Z,48.63
2017-12-22T21:10:25.693Z,48.90
2017-12-22T21:12:53.167Z,40.93
2017-12-22T21:15:20.578Z,42.10
2017-12-22T21:17:49.094Z,38.50
2017-12-22T21:20:16.533Z,37.93
2017-12-22T21:22:43.965Z,36.27
2017-12-22T21:25:12.520Z,38.03
2017-12-22T21:27:39.960Z,37.53
2017-12-22T21:30:08.176Z,36.07
2017-12-22T21:32:35.611Z,36.00
2017-12-22T21:35:03.053Z,36.43
2017-12-22T21:37:30.502Z,36.27
2017-12-22T21:39:58.265Z,33.33
2017-12-22T21:42:25.720Z,38.10
2017-12-22T21:44:53.152Z,38.03
2017-12-22T21:47:20.950Z,37.40
2017-12-22T21:49:48.388Z,30.77
2017-12-22T21:52:15.830Z,31.67
2017-12-22T21:54:43.289Z,29.97
2017-12-22T21:57:11.028Z,28.80
2017-12-22T21:59:38.477Z,31.57
2017-12-22T22:02:06.714Z,28.60
2017-12-22T22:04:34.121Z,27.93
2017-12-22T22:07:02.393Z,27.87
2017-12-22T22:09:30.608Z,27.90
2017-12-22T22:11:58.041Z,28.80
2017-12-22T22:14:25.474Z,25.53
2017-12-22T22:16:53.924Z,28.33
2017-12-22T22:19:21.377Z,28.90
2017-12-22T22:21:48.813Z,28.27
2017-12-22T22:24:16.506Z,26.43
2017-12-22T22:26:43.944Z,26.03
2017-12-22T22:29:11.385Z,23.37
2017-12-22T22:34:15.047Z,22.13
2017-12-22T22:36:42.830Z,22.70
2017-12-22T22:39:11.029Z,21.53
2017-12-22T22:41:38.460Z,25.47
2017-12-22T22:44:06.745Z,25.80
2017-12-22T22:46:35.011Z,20.67
2017-12-22T22:49:03.245Z,21.77
2017-12-22T22:51:30.685Z,19.57
2017-12-22T22:53:59.033Z,21.63
2017-12-22T22:56:27.268Z,18.67
2017-12-22T22:58:55.714Z,17.47
2017-12-22T23:01:23.153Z,18.03
2017-12-22T23:03:51.345Z,18.00
2017-12-22T23:06:18.928Z,16.47
2017-12-22T23:08:46.357Z,15.97
2017-12-22T23:11:13.794Z,17.27
2017-12-22T23:13:42.253Z,17.53
2017-12-22T23:16:09.763Z,17.30
2017-12-22T23:18:37.168Z,18.83
2017-12-22T23:21:04.617Z,19.73
2017-12-22T23:23:32.097Z,16.63
2017-12-22T23:25:59.564Z,18.63
2017-12-22T23:28:28.085Z,19.83
2017-12-22T23:30:55.517Z,19.17
2017-12-22T23:33:22.953Z,22.73
2017-12-22T23:35:51.180Z,24.57
2017-12-22T23:38:18.612Z,24.00
2017-12-22T23:40:46.069Z,24.47
2017-12-22T23:43:13.566Z,25.43
2017-12-22T23:45:42.500Z,27.37
2017-12-22T23:48:09.933Z,28.67
2017-12-22T23:50:37.635Z,28.77
2017-12-22T23:53:05.071Z,29.20
2017-12-22T23:55:33.276Z,29.67
2017-12-22T23:58:00.735Z,29.60
